createdAt,value
2022-12-19T00:06:43.470Z,2.1
2022-12-19T00:16:43.897Z,1.7
2022-12-19T00:26:44.589Z,1.6
2022-12-19T00:36:45.286Z,1.9
2022-12-19T00:46:52.892Z,1.7
2022-12-19T00:54:31.740Z,1.7
2022-12-19T00:56:47.967Z,2.5
2022-12-19T00:58:19.748Z,2.5
2022-12-19T01:06:47.626Z,2.3
2022-12-19T01:16:48.415Z,2
2022-12-19T01:18:10.386Z,2
2022-12-19T01:26:49.012Z,1.9
2022-12-19T01:36:49.748Z,2
2022-12-19T01:46:50.425Z,2.6
2022-12-19T01:56:51.052Z,2.5
2022-12-19T02:06:51.781Z,2.1
2022-12-19T02:16:52.480Z,2
2022-12-19T02:26:53.076Z,2.8
2022-12-19T02:36:53.679Z,2.5
2022-12-19T02:46:54.173Z,2.2
2022-12-19T02:56:54.760Z,2.1
2022-12-19T03:06:55.335Z,1.9
2022-12-19T03:16:56.031Z,1.9
2022-12-19T03:26:56.482Z,1.8
2022-12-19T03:36:57.104Z,1.8
2022-12-19T03:46:57.650Z,2
2022-12-19T03:56:58.183Z,3.2
2022-12-19T04:06:58.627Z,2
2022-12-19T04:16:59.139Z,2.1
2022-12-19T04:26:59.624Z,1.9
2022-12-19T04:37:00.144Z,2
2022-12-19T04:47:00.628Z,1.9
2022-12-19T04:57:01.121Z,2
2022-12-19T05:07:01.597Z,1.9
2022-12-19T05:17:02.056Z,1.7
2022-12-19T05:27:02.564Z,1.8
2022-12-19T05:37:03.013Z,1.6
2022-12-19T05:47:03.430Z,1.6
2022-12-19T05:57:03.932Z,1.4
2022-12-19T06:07:04.324Z,1.4
2022-12-19T06:17:04.819Z,1.4
2022-12-19T06:27:05.243Z,1.5
2022-12-19T06:37:08.220Z,1.5
2022-12-19T06:47:06.196Z,1.3
2022-12-19T06:57:06.647Z,1.4
2022-12-19T07:07:07.077Z,1.8
2022-12-19T07:17:07.494Z,1.8
2022-12-19T07:27:07.966Z,1.5
2022-12-19T07:37:08.390Z,1.9
2022-12-19T07:47:08.793Z,2.1
2022-12-19T07:57:09.221Z,2
2022-12-19T08:07:09.712Z,2
2022-12-19T08:17:21.429Z,2.1
2022-12-19T08:27:10.482Z,2.3
2022-12-19T08:37:10.931Z,2.4
2022-12-19T08:47:11.324Z,2.2
2022-12-19T08:57:11.670Z,2.6
2022-12-19T09:07:12.103Z,2.5
2022-12-19T09:17:12.451Z,2.8
2022-12-19T09:27:12.798Z,2.6
2022-12-19T09:37:16.562Z,2.8
2022-12-19T09:47:13.607Z,3.1
2022-12-19T09:57:14.065Z,3.3
2022-12-19T10:07:33.076Z,3.2
2022-12-19T10:17:24.725Z,3.2
2022-12-19T10:27:15.063Z,3.7
2022-12-19T10:37:27.473Z,3
2022-12-19T10:47:15.847Z,3.5
2022-12-19T10:57:16.143Z,3.3
2022-12-19T11:07:16.468Z,3.4
2022-12-19T11:19:58.300Z,3.5
2022-12-19T11:30:23.221Z,3.5
2022-12-19T11:37:17.454Z,3.5
2022-12-19T11:47:17.629Z,3.4
2022-12-19T11:57:19.187Z,3.9
2022-12-19T12:07:18.558Z,3.5
2022-12-19T12:21:44.250Z,3.8
2022-12-19T12:31:37.190Z,3.4
2022-12-19T12:38:07.351Z,3.8
2022-12-19T12:47:19.327Z,4.2
2022-12-19T12:57:19.680Z,3.9
2022-12-19T13:07:19.977Z,3.7
2022-12-19T13:17:20.285Z,4
2022-12-19T13:27:20.559Z,3.7
2022-12-19T13:39:52.782Z,4.4
2022-12-19T13:47:23.890Z,3.7
2022-12-19T13:57:21.362Z,3.7
2022-12-19T14:07:23.884Z,4
2022-12-19T14:17:21.790Z,4.4
2022-12-19T14:28:22.852Z,4.9
2022-12-19T14:37:31.714Z,4.3
2022-12-19T14:51:42.489Z,4.3
2022-12-19T14:57:25.278Z,4.5
2022-12-19T15:07:23.454Z,4.1
2022-12-19T15:17:23.844Z,3.7
2022-12-19T15:27:24.178Z,4.5
2022-12-19T15:37:24.586Z,3.7
2022-12-19T15:47:24.948Z,3.8
2022-12-19T15:57:25.389Z,3.5
2022-12-19T16:07:25.815Z,3.1
2022-12-19T16:17:26.277Z,3.5
2022-12-19T16:27:26.641Z,3.4
2022-12-19T16:37:31.930Z,3.6
2022-12-19T16:47:27.661Z,3.6
2022-12-19T16:57:28.105Z,3.4
2022-12-19T17:07:28.485Z,4
2022-12-19T17:17:28.962Z,4.1
2022-12-19T17:27:29.470Z,3.6
2022-12-19T17:37:29.987Z,3.5
2022-12-19T17:47:30.494Z,2.8
2022-12-19T17:57:31.039Z,2.9
2022-12-19T18:07:31.472Z,2.5
2022-12-19T18:17:31.939Z,2.9
2022-12-19T18:27:32.461Z,3.2
2022-12-19T18:37:33.016Z,2.8
2022-12-19T18:47:33.508Z,2.7
2022-12-19T18:57:34.152Z,2.2
2022-12-19T19:07:34.796Z,2
2022-12-19T19:17:35.483Z,2
2022-12-19T19:27:36.095Z,2.3
2022-12-19T19:37:36.869Z,2
2022-12-19T19:47:37.564Z,2.3
2022-12-19T19:57:38.180Z,2.5
2022-12-19T20:07:38.881Z,2.2
2022-12-19T20:17:39.528Z,2.1
2022-12-19T20:27:40.169Z,2.2
2022-12-19T20:37:40.839Z,2
2022-12-19T20:47:41.656Z,2.5
2022-12-19T20:57:42.371Z,1.8
2022-12-19T21:07:43.082Z,2.3
2022-12-19T21:17:44.890Z,1.9
2022-12-19T21:27:44.414Z,2.2
2022-12-19T21:37:45.100Z,2.2
2022-12-19T21:47:45.790Z,2.3
2022-12-19T21:57:46.462Z,2.3
2022-12-19T22:07:47.145Z,2.5
2022-12-19T22:17:47.728Z,2.4
2022-12-19T22:27:48.426Z,2.3
2022-12-19T22:37:49.157Z,2.6
2022-12-19T22:47:49.821Z,2.4
2022-12-19T22:57:51.378Z,2.5
2022-12-19T23:07:52.081Z,2.7
2022-12-19T23:17:51.534Z,3.3
2022-12-19T23:27:52.120Z,3.4
2022-12-19T23:37:52.755Z,3
2022-12-19T23:47:53.348Z,2.7
2022-12-19T23:57:54.027Z,4.3
